sensor_id;sensor_type;location;lat;lon;timestamp;temperature;humidity
39957;DHT22;48483;44.640;7.494;2023-02-28T00:00:10;4.50;99.90
39957;DHT22;48483;44.640;7.494;2023-02-28T00:02:41;4.50;99.90
39957;DHT22;48483;44.640;7.494;2023-02-28T00:05:09;4.50;99.90
39957;DHT22;48483;44.640;7.494;2023-02-28T00:07:37;4.50;99.90
39957;DHT22;48483;44.640;7.494;2023-02-28T00:10:05;4.50;99.90
39957;DHT22;48483;44.640;7.494;2023-02-28T00:12:34;4.40;99.90
39957;DHT22;48483;44.640;7.494;2023-02-28T00:15:03;4.40;99.90
39957;DHT22;48483;44.640;7.494;2023-02-28T00:17:32;4.50;99.90
39957;DHT22;48483;44.640;7.494;2023-02-28T00:20:00;4.50;99.90
39957;DHT22;48483;44.640;7.494;2023-02-28T00:22:32;4.50;99.90
39957;DHT22;48483;44.640;7.494;2023-02-28T00:25:00;4.50;99.90
39957;DHT22;48483;44.640;7.494;2023-02-28T00:27:27;4.50;99.90
39957;DHT22;48483;44.640;7.494;2023-02-28T00:29:53;4.50;99.90
39957;DHT22;48483;44.640;7.494;2023-02-28T00:32:20;4.50;99.90
39957;DHT22;48483;44.640;7.494;2023-02-28T00:34:48;4.50;99.90
39957;DHT22;48483;44.640;7.494;2023-02-28T00:37:14;4.40;99.90
39957;DHT22;48483;44.640;7.494;2023-02-28T00:39:41;4.50;99.90
39957;DHT22;48483;44.640;7.494;2023-02-28T00:42:08;4.50;99.90
39957;DHT22;48483;44.640;7.494;2023-02-28T00:44:35;4.50;99.90
39957;DHT22;48483;44.640;7.494;2023-02-28T00:47:01;4.50;99.90
39957;DHT22;48483;44.640;7.494;2023-02-28T00:49:28;4.50;99.90
39957;DHT22;48483;44.640;7.494;2023-02-28T00:51:56;4.50;99.90
39957;DHT22;48483;44.640;7.494;2023-02-28T00:54:23;4.50;99.90
39957;DHT22;48483;44.640;7.494;2023-02-28T00:56:49;4.50;99.90
39957;DHT22;48483;44.640;7.494;2023-02-28T00:59:17;4.50;99.90
39957;DHT22;48483;44.640;7.494;2023-02-28T01:01:45;4.50;99.90
39957;DHT22;48483;44.640;7.494;2023-02-28T01:04:12;4.50;99.90
39957;DHT22;48483;44.640;7.494;2023-02-28T01:06:39;4.40;99.90
39957;DHT22;48483;44.640;7.494;2023-02-28T01:09:07;4.40;99.90
39957;DHT22;48483;44.640;7.494;2023-02-28T01:11:34;4.40;99.90
39957;DHT22;48483;44.640;7.494;2023-02-28T01:14:01;4.30;99.90
39957;DHT22;48483;44.640;7.494;2023-02-28T01:16:28;4.30;99.90
39957;DHT22;48483;44.640;7.494;2023-02-28T01:18:55;4.30;99.90
39957;DHT22;48483;44.640;7.494;2023-02-28T01:21:21;4.30;99.90
39957;DHT22;48483;44.640;7.494;2023-02-28T01:23:49;4.30;99.90
39957;DHT22;48483;44.640;7.494;2023-02-28T01:26:19;4.30;99.90
39957;DHT22;48483;44.640;7.494;2023-02-28T01:28:46;4.20;99.90
39957;DHT22;48483;44.640;7.494;2023-02-28T01:31:13;4.20;99.90
39957;DHT22;48483;44.640;7.494;2023-02-28T01:33:40;4.20;99.90
39957;DHT22;48483;44.640;7.494;2023-02-28T01:36:09;4.20;99.90
39957;DHT22;48483;44.640;7.494;2023-02-28T01:38:37;4.20;99.90
39957;DHT22;48483;44.640;7.494;2023-02-28T01:41:04;4.20;99.90
39957;DHT22;48483;44.640;7.494;2023-02-28T01:46:17;4.10;99.90
39957;DHT22;48483;44.640;7.494;2023-02-28T01:48:48;4.20;99.90
39957;DHT22;48483;44.640;7.494;2023-02-28T01:51:18;4.20;99.90
39957;DHT22;48483;44.640;7.494;2023-02-28T01:53:49;4.10;99.90
39957;DHT22;48483;44.640;7.494;2023-02-28T01:56:20;4.20;99.90
39957;DHT22;48483;44.640;7.494;2023-02-28T01:58:51;4.20;99.90
39957;DHT22;48483;44.640;7.494;2023-02-28T02:01:36;4.20;99.90
39957;DHT22;48483;44.640;7.494;2023-02-28T02:04:03;4.20;99.90
39957;DHT22;48483;44.640;7.494;2023-02-28T02:06:34;4.20;99.90
39957;DHT22;48483;44.640;7.494;2023-02-28T02:09:02;4.20;99.90
39957;DHT22;48483;44.640;7.494;2023-02-28T02:11:29;4.20;99.90
39957;DHT22;48483;44.640;7.494;2023-02-28T02:14:13;4.20;99.90
39957;DHT22;48483;44.640;7.494;2023-02-28T02:16:51;4.20;99.90
39957;DHT22;48483;44.640;7.494;2023-02-28T02:19:42;4.10;99.90
39957;DHT22;48483;44.640;7.494;2023-02-28T02:22:38;4.10;99.90
39957;DHT22;48483;44.640;7.494;2023-02-28T02:25:17;4.10;99.90
39957;DHT22;48483;44.640;7.494;2023-02-28T02:28:05;4.10;99.90
39957;DHT22;48483;44.640;7.494;2023-02-28T02:31:03;4.10;99.90
39957;DHT22;48483;44.640;7.494;2023-02-28T02:36:39;4.10;99.90
39957;DHT22;48483;44.640;7.494;2023-02-28T02:39:13;4.10;99.90
39957;DHT22;48483;44.640;7.494;2023-02-28T02:41:46;4.10;99.90
39957;DHT22;48483;44.640;7.494;2023-02-28T02:44:18;4.10;99.90
39957;DHT22;48483;44.640;7.494;2023-02-28T02:46:48;4.00;99.90
39957;DHT22;48483;44.640;7.494;2023-02-28T02:49:20;4.10;99.90
39957;DHT22;48483;44.640;7.494;2023-02-28T02:51:49;4.00;99.90
39957;DHT22;48483;44.640;7.494;2023-02-28T02:54:22;4.00;99.90
39957;DHT22;48483;44.640;7.494;2023-02-28T02:56:50;4.00;99.90
39957;DHT22;48483;44.640;7.494;2023-02-28T02:59:20;4.00;99.90
39957;DHT22;48483;44.640;7.494;2023-02-28T03:01:51;4.00;99.90
39957;DHT22;48483;44.640;7.494;2023-02-28T03:04:19;4.00;99.90
39957;DHT22;48483;44.640;7.494;2023-02-28T03:06:49;4.00;99.90
39957;DHT22;48483;44.640;7.494;2023-02-28T03:09:16;4.00;99.90
39957;DHT22;48483;44.640;7.494;2023-02-28T03:11:43;4.00;99.90
39957;DHT22;48483;44.640;7.494;2023-02-28T03:14:33;4.00;99.90
39957;DHT22;48483;44.640;7.494;2023-02-28T03:20:10;4.10;99.90
39957;DHT22;48483;44.640;7.494;2023-02-28T03:22:52;4.10;99.90
39957;DHT22;48483;44.640;7.494;2023-02-28T03:25:29;4.10;99.90
39957;DHT22;48483;44.640;7.494;2023-02-28T03:28:05;4.10;99.90
39957;DHT22;48483;44.640;7.494;2023-02-28T03:30:40;4.10;99.90
39957;DHT22;48483;44.640;7.494;2023-02-28T03:33:10;4.10;99.90
39957;DHT22;48483;44.640;7.494;2023-02-28T03:35:41;4.00;99.90
39957;DHT22;48483;44.640;7.494;2023-02-28T03:38:15;4.10;99.90
39957;DHT22;48483;44.640;7.494;2023-02-28T03:40:49;4.10;99.90
39957;DHT22;48483;44.640;7.494;2023-02-28T03:43:21;4.10;99.90
39957;DHT22;48483;44.640;7.494;2023-02-28T03:45:50;4.10;99.90
39957;DHT22;48483;44.640;7.494;2023-02-28T03:48:19;4.10;99.90
39957;DHT22;48483;44.640;7.494;2023-02-28T03:50:50;4.10;99.90
39957;DHT22;48483;44.640;7.494;2023-02-28T03:53:25;4.10;99.90
39957;DHT22;48483;44.640;7.494;2023-02-28T03:55:56;4.10;99.90
39957;DHT22;48483;44.640;7.494;2023-02-28T03:58:24;4.20;99.90
39957;DHT22;48483;44.640;7.494;2023-02-28T04:00:57;4.20;99.90
39957;DHT22;48483;44.640;7.494;2023-02-28T04:03:25;4.10;99.90
39957;DHT22;48483;44.640;7.494;2023-02-28T04:05:54;4.20;99.90
39957;DHT22;48483;44.640;7.494;2023-02-28T04:08:23;4.20;99.90
39957;DHT22;48483;44.640;7.494;2023-02-28T04:10:55;4.20;99.90
39957;DHT22;48483;44.640;7.494;2023-02-28T04:13:22;4.20;99.90
39957;DHT22;48483;44.640;7.494;2023-02-28T04:15:49;4.30;99.90
39957;DHT22;48483;44.640;7.494;2023-02-28T04:18:15;4.20;99.90
39957;DHT22;48483;44.640;7.494;2023-02-28T04:20:42;4.30;99.90
39957;DHT22;48483;44.640;7.494;2023-02-28T04:23:08;4.30;99.90
39957;DHT22;48483;44.640;7.494;2023-02-28T04:25:36;4.30;99.90
39957;DHT22;48483;44.640;7.494;2023-02-28T04:28:03;4.30;99.90
39957;DHT22;48483;44.640;7.494;2023-02-28T04:30:30;4.20;99.90
39957;DHT22;48483;44.640;7.494;2023-02-28T04:33:00;4.30;99.90
39957;DHT22;48483;44.640;7.494;2023-02-28T04:35:27;4.30;99.90
39957;DHT22;48483;44.640;7.494;2023-02-28T04:37:53;4.20;99.90
39957;DHT22;48483;44.640;7.494;2023-02-28T04:40:20;4.30;99.90
39957;DHT22;48483;44.640;7.494;2023-02-28T04:42:48;4.30;99.90
39957;DHT22;48483;44.640;7.494;2023-02-28T04:45:14;4.20;99.90
39957;DHT22;48483;44.640;7.494;2023-02-28T04:47:41;4.20;99.90
39957;DHT22;48483;44.640;7.494;2023-02-28T04:50:08;4.30;99.90
39957;DHT22;48483;44.640;7.494;2023-02-28T04:52:35;4.20;99.90
39957;DHT22;48483;44.640;7.494;2023-02-28T04:55:02;4.20;99.90
39957;DHT22;48483;44.640;7.494;2023-02-28T04:57:28;4.20;99.90
39957;DHT22;48483;44.640;7.494;2023-02-28T04:59:57;4.20;99.90
39957;DHT22;48483;44.640;7.494;2023-02-28T05:02:24;4.20;99.90
39957;DHT22;48483;44.640;7.494;2023-02-28T05:04:50;4.20;99.90
39957;DHT22;48483;44.640;7.494;2023-02-28T05:07:17;4.20;99.90
39957;DHT22;48483;44.640;7.494;2023-02-28T05:09:43;4.20;99.90
39957;DHT22;48483;44.640;7.494;2023-02-28T05:12:10;4.20;99.90
39957;DHT22;48483;44.640;7.494;2023-02-28T05:14:36;4.20;99.90
39957;DHT22;48483;44.640;7.494;2023-02-28T05:17:04;4.20;99.90
39957;DHT22;48483;44.640;7.494;2023-02-28T05:19:31;4.20;99.90
39957;DHT22;48483;44.640;7.494;2023-02-28T05:21:58;4.20;99.90
39957;DHT22;48483;44.640;7.494;2023-02-28T05:24:24;4.20;99.90
39957;DHT22;48483;44.640;7.494;2023-02-28T05:26:52;4.20;99.90
39957;DHT22;48483;44.640;7.494;2023-02-28T05:29:19;4.10;99.90
39957;DHT22;48483;44.640;7.494;2023-02-28T05:31:45;4.20;99.90
39957;DHT22;48483;44.640;7.494;2023-02-28T05:34:13;4.20;99.90
39957;DHT22;48483;44.640;7.494;2023-02-28T05:36:42;4.20;99.90
39957;DHT22;48483;44.640;7.494;2023-02-28T05:39:08;4.20;99.90
39957;DHT22;48483;44.640;7.494;2023-02-28T05:41:40;4.10;99.90
39957;DHT22;48483;44.640;7.494;2023-02-28T05:44:07;4.10;99.90
39957;DHT22;48483;44.640;7.494;2023-02-28T05:46:33;4.20;99.90
39957;DHT22;48483;44.640;7.494;2023-02-28T05:49:00;4.10;99.90
39957;DHT22;48483;44.640;7.494;2023-02-28T05:51:28;4.10;99.90
39957;DHT22;48483;44.640;7.494;2023-02-28T05:53:58;4.10;99.90
39957;DHT22;48483;44.640;7.494;2023-02-28T05:56:25;4.10;99.90
39957;DHT22;48483;44.640;7.494;2023-02-28T05:58:52;4.10;99.90
39957;DHT22;48483;44.640;7.494;2023-02-28T06:01:24;4.10;99.90
39957;DHT22;48483;44.640;7.494;2023-02-28T06:03:52;4.10;99.90
39957;DHT22;48483;44.640;7.494;2023-02-28T06:06:18;4.10;99.90
39957;DHT22;48483;44.640;7.494;2023-02-28T06:08:46;4.10;99.90
39957;DHT22;48483;44.640;7.494;2023-02-28T06:11:13;4.10;99.90
39957;DHT22;48483;44.640;7.494;2023-02-28T06:13:39;4.20;99.90
39957;DHT22;48483;44.640;7.494;2023-02-28T06:16:07;4.20;99.90
39957;DHT22;48483;44.640;7.494;2023-02-28T06:18:34;4.10;99.90
39957;DHT22;48483;44.640;7.494;2023-02-28T06:21:00;4.10;99.90
39957;DHT22;48483;44.640;7.494;2023-02-28T06:23:27;4.10;99.90
39957;DHT22;48483;44.640;7.494;2023-02-28T06:25:55;4.10;99.90
39957;DHT22;48483;44.640;7.494;2023-02-28T06:28:24;4.10;99.90
39957;DHT22;48483;44.640;7.494;2023-02-28T06:30:51;4.10;99.90
39957;DHT22;48483;44.640;7.494;2023-02-28T06:33:18;4.10;99.90
39957;DHT22;48483;44.640;7.494;2023-02-28T06:35:46;4.10;99.90
39957;DHT22;48483;44.640;7.494;2023-02-28T06:38:13;4.10;99.90
39957;DHT22;48483;44.640;7.494;2023-02-28T06:40:39;4.10;99.90
39957;DHT22;48483;44.640;7.494;2023-02-28T06:43:07;4.10;99.90
39957;DHT22;48483;44.640;7.494;2023-02-28T06:45:34;4.10;99.90
39957;DHT22;48483;44.640;7.494;2023-02-28T06:48:01;4.10;99.90
39957;DHT22;48483;44.640;7.494;2023-02-28T06:50:27;4.10;99.90
39957;DHT22;48483;44.640;7.494;2023-02-28T06:52:55;4.10;99.90
39957;DHT22;48483;44.640;7.494;2023-02-28T06:55:22;4.10;99.90
39957;DHT22;48483;44.640;7.494;2023-02-28T06:57:48;4.10;99.90
39957;DHT22;48483;44.640;7.494;2023-02-28T07:00:19;4.10;99.90
39957;DHT22;48483;44.640;7.494;2023-02-28T07:02:45;4.10;99.90
39957;DHT22;48483;44.640;7.494;2023-02-28T07:05:13;4.20;99.90
39957;DHT22;48483;44.640;7.494;2023-02-28T07:07:40;4.10;99.90
39957;DHT22;48483;44.640;7.494;2023-02-28T07:10:10;4.20;99.90
39957;DHT22;48483;44.640;7.494;2023-02-28T07:12:38;4.20;99.90
39957;DHT22;48483;44.640;7.494;2023-02-28T07:15:05;4.10;99.90
39957;DHT22;48483;44.640;7.494;2023-02-28T07:17:33;4.10;99.90
39957;DHT22;48483;44.640;7.494;2023-02-28T07:20:00;4.10;99.90
39957;DHT22;48483;44.640;7.494;2023-02-28T07:22:26;4.10;99.90
39957;DHT22;48483;44.640;7.494;2023-02-28T07:24:54;4.10;99.90
39957;DHT22;48483;44.640;7.494;2023-02-28T07:27:21;4.10;99.90
39957;DHT22;48483;44.640;7.494;2023-02-28T07:29:51;4.10;99.90
39957;DHT22;48483;44.640;7.494;2023-02-28T07:32:18;4.10;99.90
39957;DHT22;48483;44.640;7.494;2023-02-28T07:34:46;4.20;99.90
39957;DHT22;48483;44.640;7.494;2023-02-28T07:37:12;4.20;99.90
39957;DHT22;48483;44.640;7.494;2023-02-28T07:39:39;4.20;99.90
39957;DHT22;48483;44.640;7.494;2023-02-28T07:42:08;4.20;99.90
39957;DHT22;48483;44.640;7.494;2023-02-28T07:44:38;4.30;99.90
39957;DHT22;48483;44.640;7.494;2023-02-28T07:47:07;4.30;99.90
39957;DHT22;48483;44.640;7.494;2023-02-28T07:49:34;4.30;99.90
39957;DHT22;48483;44.640;7.494;2023-02-28T07:52:03;4.30;99.90
39957;DHT22;48483;44.640;7.494;2023-02-28T07:54:29;4.30;99.90
39957;DHT22;48483;44.640;7.494;2023-02-28T07:56:56;4.30;99.90
39957;DHT22;48483;44.640;7.494;2023-02-28T07:59:23;4.30;99.90
39957;DHT22;48483;44.640;7.494;2023-02-28T08:01:49;4.30;99.90
39957;DHT22;48483;44.640;7.494;2023-02-28T08:04:17;4.30;99.90
39957;DHT22;48483;44.640;7.494;2023-02-28T08:06:44;4.30;99.90
39957;DHT22;48483;44.640;7.494;2023-02-28T08:09:12;4.30;99.90
39957;DHT22;48483;44.640;7.494;2023-02-28T08:11:39;4.30;99.90
39957;DHT22;48483;44.640;7.494;2023-02-28T08:14:05;4.30;99.90
39957;DHT22;48483;44.640;7.494;2023-02-28T08:16:32;4.30;99.90
39957;DHT22;48483;44.640;7.494;2023-02-28T08:18:58;4.30;99.90
39957;DHT22;48483;44.640;7.494;2023-02-28T08:21:25;4.30;99.90
39957;DHT22;48483;44.640;7.494;2023-02-28T08:23:51;4.30;99.90
39957;DHT22;48483;44.640;7.494;2023-02-28T08:26:20;4.30;99.90
39957;DHT22;48483;44.640;7.494;2023-02-28T08:28:47;4.30;99.90
39957;DHT22;48483;44.640;7.494;2023-02-28T08:31:15;4.30;99.90
39957;DHT22;48483;44.640;7.494;2023-02-28T08:33:42;4.40;99.90
39957;DHT22;48483;44.640;7.494;2023-02-28T08:36:11;4.40;99.90
39957;DHT22;48483;44.640;7.494;2023-02-28T08:38:38;4.30;99.90
39957;DHT22;48483;44.640;7.494;2023-02-28T08:41:06;4.40;99.90
39957;DHT22;48483;44.640;7.494;2023-02-28T08:43:35;4.40;99.90
39957;DHT22;48483;44.640;7.494;2023-02-28T08:46:02;4.40;99.90
39957;DHT22;48483;44.640;7.494;2023-02-28T08:48:31;4.40;99.90
39957;DHT22;48483;44.640;7.494;2023-02-28T08:50:58;4.40;99.90
39957;DHT22;48483;44.640;7.494;2023-02-28T08:53:25;4.40;99.90
39957;DHT22;48483;44.640;7.494;2023-02-28T08:55:56;4.50;99.90
39957;DHT22;48483;44.640;7.494;2023-02-28T08:58:23;4.50;99.90
39957;DHT22;48483;44.640;7.494;2023-02-28T09:00:52;4.50;99.90
39957;DHT22;48483;44.640;7.494;2023-02-28T09:03:19;4.50;99.90
39957;DHT22;48483;44.640;7.494;2023-02-28T09:05:53;4.50;99.90
39957;DHT22;48483;44.640;7.494;2023-02-28T09:08:19;4.60;99.90
39957;DHT22;48483;44.640;7.494;2023-02-28T09:10:46;4.60;99.90
39957;DHT22;48483;44.640;7.494;2023-02-28T09:13:13;4.60;99.90
39957;DHT22;48483;44.640;7.494;2023-02-28T09:15:40;4.60;99.90
39957;DHT22;48483;44.640;7.494;2023-02-28T09:18:07;4.60;99.90
39957;DHT22;48483;44.640;7.494;2023-02-28T09:20:36;4.60;99.90
39957;DHT22;48483;44.640;7.494;2023-02-28T09:23:03;4.70;99.90
39957;DHT22;48483;44.640;7.494;2023-02-28T09:25:29;4.70;99.90
39957;DHT22;48483;44.640;7.494;2023-02-28T09:27:56;4.70;99.90
39957;DHT22;48483;44.640;7.494;2023-02-28T09:30:22;4.70;99.90
39957;DHT22;48483;44.640;7.494;2023-02-28T09:32:49;4.60;99.90
39957;DHT22;48483;44.640;7.494;2023-02-28T09:35:19;4.70;99.90
39957;DHT22;48483;44.640;7.494;2023-02-28T09:37:47;4.60;99.90
39957;DHT22;48483;44.640;7.494;2023-02-28T09:40:14;4.70;99.90
39957;DHT22;48483;44.640;7.494;2023-02-28T09:42:47;4.70;99.90
39957;DHT22;48483;44.640;7.494;2023-02-28T09:45:24;4.70;99.90
39957;DHT22;48483;44.640;7.494;2023-02-28T09:47:53;4.70;99.90
39957;DHT22;48483;44.640;7.494;2023-02-28T09:50:30;4.70;99.90
39957;DHT22;48483;44.640;7.494;2023-02-28T09:52:59;4.70;99.90
39957;DHT22;48483;44.640;7.494;2023-02-28T09:55:31;4.70;99.90
39957;DHT22;48483;44.640;7.494;2023-02-28T09:58:00;4.70;99.90
39957;DHT22;48483;44.640;7.494;2023-02-28T10:00:32;4.70;99.90
39957;DHT22;48483;44.640;7.494;2023-02-28T10:03:11;4.70;99.90
39957;DHT22;48483;44.640;7.494;2023-02-28T10:05:41;4.70;99.90
39957;DHT22;48483;44.640;7.494;2023-02-28T10:08:13;4.60;99.90
39957;DHT22;48483;44.640;7.494;2023-02-28T10:10:43;4.60;99.90
39957;DHT22;48483;44.640;7.494;2023-02-28T10:13:17;4.70;99.90
39957;DHT22;48483;44.640;7.494;2023-02-28T10:15:48;4.70;99.90
39957;DHT22;48483;44.640;7.494;2023-02-28T10:18:21;4.60;99.90
39957;DHT22;48483;44.640;7.494;2023-02-28T10:20:51;4.60;99.90
39957;DHT22;48483;44.640;7.494;2023-02-28T10:23:21;4.60;99.90
39957;DHT22;48483;44.640;7.494;2023-02-28T10:25:54;4.60;99.90
39957;DHT22;48483;44.640;7.494;2023-02-28T10:28:21;4.70;99.90
39957;DHT22;48483;44.640;7.494;2023-02-28T10:30:49;4.60;99.90
39957;DHT22;48483;44.640;7.494;2023-02-28T10:33:22;4.60;99.90
39957;DHT22;48483;44.640;7.494;2023-02-28T10:35:52;4.60;99.90
39957;DHT22;48483;44.640;7.494;2023-02-28T10:38:21;4.70;99.90
39957;DHT22;48483;44.640;7.494;2023-02-28T10:40:48;4.70;99.90
39957;DHT22;48483;44.640;7.494;2023-02-28T10:43:22;4.60;99.90
39957;DHT22;48483;44.640;7.494;2023-02-28T10:45:55;4.60;99.90
39957;DHT22;48483;44.640;7.494;2023-02-28T10:48:29;4.60;99.90
39957;DHT22;48483;44.640;7.494;2023-02-28T10:50:58;4.70;99.90
39957;DHT22;48483;44.640;7.494;2023-02-28T10:53:34;4.70;99.90
39957;DHT22;48483;44.640;7.494;2023-02-28T10:56:04;4.70;99.90
39957;DHT22;48483;44.640;7.494;2023-02-28T10:58:42;4.70;99.90
39957;DHT22;48483;44.640;7.494;2023-02-28T11:01:14;4.80;99.90
39957;DHT22;48483;44.640;7.494;2023-02-28T11:03:41;4.70;99.90
39957;DHT22;48483;44.640;7.494;2023-02-28T11:06:15;4.70;99.90
39957;DHT22;48483;44.640;7.494;2023-02-28T11:08:47;4.60;99.90
39957;DHT22;48483;44.640;7.494;2023-02-28T11:11:14;4.70;99.90
39957;DHT22;48483;44.640;7.494;2023-02-28T11:13:44;4.70;99.90
39957;DHT22;48483;44.640;7.494;2023-02-28T11:16:13;4.80;99.90
39957;DHT22;48483;44.640;7.494;2023-02-28T11:18:43;4.80;99.90
39957;DHT22;48483;44.640;7.494;2023-02-28T11:21:20;4.80;99.90
39957;DHT22;48483;44.640;7.494;2023-02-28T11:23:49;4.80;99.90
39957;DHT22;48483;44.640;7.494;2023-02-28T11:26:35;4.80;99.90
39957;DHT22;48483;44.640;7.494;2023-02-28T11:29:12;4.90;99.90
39957;DHT22;48483;44.640;7.494;2023-02-28T11:31:42;4.90;99.90
39957;DHT22;48483;44.640;7.494;2023-02-28T11:34:24;4.90;99.90
39957;DHT22;48483;44.640;7.494;2023-02-28T11:36:54;4.90;99.90
39957;DHT22;48483;44.640;7.494;2023-02-28T11:39:23;4.80;99.90
39957;DHT22;48483;44.640;7.494;2023-02-28T11:42:11;4.80;99.90
39957;DHT22;48483;44.640;7.494;2023-02-28T11:44:51;4.80;99.90
39957;DHT22;48483;44.640;7.494;2023-02-28T11:47:31;4.90;99.90
39957;DHT22;48483;44.640;7.494;2023-02-28T11:50:09;4.90;99.90
39957;DHT22;48483;44.640;7.494;2023-02-28T11:52:45;4.90;99.90
39957;DHT22;48483;44.640;7.494;2023-02-28T11:55:17;4.90;99.90
39957;DHT22;48483;44.640;7.494;2023-02-28T11:58:04;4.90;99.90
39957;DHT22;48483;44.640;7.494;2023-02-28T12:00:40;4.90;99.90
39957;DHT22;48483;44.640;7.494;2023-02-28T12:03:18;5.00;99.90
39957;DHT22;48483;44.640;7.494;2023-02-28T12:05:54;5.00;99.90
39957;DHT22;48483;44.640;7.494;2023-02-28T12:08:42;5.00;99.90
39957;DHT22;48483;44.640;7.494;2023-02-28T12:11:16;5.00;99.90
39957;DHT22;48483;44.640;7.494;2023-02-28T12:13:51;5.00;99.90
39957;DHT22;48483;44.640;7.494;2023-02-28T12:16:37;5.00;99.90
39957;DHT22;48483;44.640;7.494;2023-02-28T12:19:16;5.00;99.90
39957;DHT22;48483;44.640;7.494;2023-02-28T12:27:29;5.10;99.90
39957;DHT22;48483;44.640;7.494;2023-02-28T12:29:58;5.10;99.90
39957;DHT22;48483;44.640;7.494;2023-02-28T12:32:30;5.00;99.90
39957;DHT22;48483;44.640;7.494;2023-02-28T12:35:02;5.00;99.90
39957;DHT22;48483;44.640;7.494;2023-02-28T12:37:34;5.00;99.90
39957;DHT22;48483;44.640;7.494;2023-02-28T12:40:11;5.00;99.90
39957;DHT22;48483;44.640;7.494;2023-02-28T12:42:42;5.00;99.90
39957;DHT22;48483;44.640;7.494;2023-02-28T12:45:17;4.90;99.90
39957;DHT22;48483;44.640;7.494;2023-02-28T12:47:48;5.00;99.90
39957;DHT22;48483;44.640;7.494;2023-02-28T12:50:16;5.10;99.90
39957;DHT22;48483;44.640;7.494;2023-02-28T12:52:48;5.10;99.90
39957;DHT22;48483;44.640;7.494;2023-02-28T12:55:23;5.10;99.90
39957;DHT22;48483;44.640;7.494;2023-02-28T12:57:59;5.10;99.90
39957;DHT22;48483;44.640;7.494;2023-02-28T13:00:32;5.20;99.90
39957;DHT22;48483;44.640;7.494;2023-02-28T13:03:21;5.10;99.90
39957;DHT22;48483;44.640;7.494;2023-02-28T13:06:13;5.10;99.90
39957;DHT22;48483;44.640;7.494;2023-02-28T13:09:01;5.10;99.90
39957;DHT22;48483;44.640;7.494;2023-02-28T13:11:32;5.20;99.90
39957;DHT22;48483;44.640;7.494;2023-02-28T13:13:59;5.20;99.90
39957;DHT22;48483;44.640;7.494;2023-02-28T13:16:26;5.20;99.90
39957;DHT22;48483;44.640;7.494;2023-02-28T13:19:09;5.10;99.90
39957;DHT22;48483;44.640;7.494;2023-02-28T13:21:43;5.10;99.90
39957;DHT22;48483;44.640;7.494;2023-02-28T13:24:11;5.20;99.90
39957;DHT22;48483;44.640;7.494;2023-02-28T13:27:24;5.20;99.90
39957;DHT22;48483;44.640;7.494;2023-02-28T13:29:57;5.20;99.90
39957;DHT22;48483;44.640;7.494;2023-02-28T13:32:33;5.10;99.90
39957;DHT22;48483;44.640;7.494;2023-02-28T13:38:31;5.20;99.90
39957;DHT22;48483;44.640;7.494;2023-02-28T13:44:13;5.20;99.90
39957;DHT22;48483;44.640;7.494;2023-02-28T13:49:44;5.10;99.90
39957;DHT22;48483;44.640;7.494;2023-02-28T13:52:16;5.10;99.90
39957;DHT22;48483;44.640;7.494;2023-02-28T13:55:02;5.10;99.90
39957;DHT22;48483;44.640;7.494;2023-02-28T13:57:44;5.10;99.90
39957;DHT22;48483;44.640;7.494;2023-02-28T14:00:23;5.10;99.90
39957;DHT22;48483;44.640;7.494;2023-02-28T14:03:15;5.10;99.90
39957;DHT22;48483;44.640;7.494;2023-02-28T14:05:44;5.10;99.90
39957;DHT22;48483;44.640;7.494;2023-02-28T14:08:15;5.10;99.90
39957;DHT22;48483;44.640;7.494;2023-02-28T14:10:46;5.10;99.90
39957;DHT22;48483;44.640;7.494;2023-02-28T14:16:14;5.10;99.90
39957;DHT22;48483;44.640;7.494;2023-02-28T14:18:49;5.20;99.90
39957;DHT22;48483;44.640;7.494;2023-02-28T14:21:21;5.20;99.90
39957;DHT22;48483;44.640;7.494;2023-02-28T14:24:24;5.10;99.90
39957;DHT22;48483;44.640;7.494;2023-02-28T14:27:09;5.10;99.90
39957;DHT22;48483;44.640;7.494;2023-02-28T14:30:07;5.10;99.90
39957;DHT22;48483;44.640;7.494;2023-02-28T14:32:44;5.10;99.90
39957;DHT22;48483;44.640;7.494;2023-02-28T14:35:39;5.10;99.90
39957;DHT22;48483;44.640;7.494;2023-02-28T14:38:14;5.10;99.90
39957;DHT22;48483;44.640;7.494;2023-02-28T14:40:43;5.10;99.90
39957;DHT22;48483;44.640;7.494;2023-02-28T14:43:20;5.10;99.90
39957;DHT22;48483;44.640;7.494;2023-02-28T14:45:51;5.10;99.90
39957;DHT22;48483;44.640;7.494;2023-02-28T14:48:19;5.10;99.90
39957;DHT22;48483;44.640;7.494;2023-02-28T14:50:49;5.10;99.90
39957;DHT22;48483;44.640;7.494;2023-02-28T14:53:19;5.10;99.90
39957;DHT22;48483;44.640;7.494;2023-02-28T14:55:48;5.10;99.90
39957;DHT22;48483;44.640;7.494;2023-02-28T14:58:22;5.10;99.90
39957;DHT22;48483;44.640;7.494;2023-02-28T15:01:10;5.10;99.90
39957;DHT22;48483;44.640;7.494;2023-02-28T15:03:39;5.10;99.90
39957;DHT22;48483;44.640;7.494;2023-02-28T15:06:13;5.10;99.90
39957;DHT22;48483;44.640;7.494;2023-02-28T15:08:40;5.10;99.90
39957;DHT22;48483;44.640;7.494;2023-02-28T15:11:11;5.20;99.90
39957;DHT22;48483;44.640;7.494;2023-02-28T15:13:40;5.20;99.90
39957;DHT22;48483;44.640;7.494;2023-02-28T15:16:11;5.20;99.90
39957;DHT22;48483;44.640;7.494;2023-02-28T15:18:43;5.20;99.90
39957;DHT22;48483;44.640;7.494;2023-02-28T15:21:12;5.20;99.90
39957;DHT22;48483;44.640;7.494;2023-02-28T15:23:40;5.20;99.90
39957;DHT22;48483;44.640;7.494;2023-02-28T15:26:12;5.20;99.90
39957;DHT22;48483;44.640;7.494;2023-02-28T15:28:40;5.20;99.90
39957;DHT22;48483;44.640;7.494;2023-02-28T15:31:26;5.20;99.90
39957;DHT22;48483;44.640;7.494;2023-02-28T15:33:56;5.10;99.90
39957;DHT22;48483;44.640;7.494;2023-02-28T15:36:26;5.20;99.90
39957;DHT22;48483;44.640;7.494;2023-02-28T15:38:53;5.20;99.90
39957;DHT22;48483;44.640;7.494;2023-02-28T15:41:25;5.10;99.90
39957;DHT22;48483;44.640;7.494;2023-02-28T15:44:14;5.10;99.90
39957;DHT22;48483;44.640;7.494;2023-02-28T15:46:43;5.10;99.90
39957;DHT22;48483;44.640;7.494;2023-02-28T15:49:18;5.20;99.90
39957;DHT22;48483;44.640;7.494;2023-02-28T15:51:45;5.10;99.90
39957;DHT22;48483;44.640;7.494;2023-02-28T15:54:15;5.20;99.90
39957;DHT22;48483;44.640;7.494;2023-02-28T15:56:46;5.20;99.90
39957;DHT22;48483;44.640;7.494;2023-02-28T15:59:16;5.20;99.90
39957;DHT22;48483;44.640;7.494;2023-02-28T16:01:44;5.20;99.90
39957;DHT22;48483;44.640;7.494;2023-02-28T16:04:15;5.10;99.90
39957;DHT22;48483;44.640;7.494;2023-02-28T16:06:43;5.20;99.90
39957;DHT22;48483;44.640;7.494;2023-02-28T16:09:12;5.20;99.90
39957;DHT22;48483;44.640;7.494;2023-02-28T16:11:43;5.20;99.90
39957;DHT22;48483;44.640;7.494;2023-02-28T16:14:16;5.30;99.90
39957;DHT22;48483;44.640;7.494;2023-02-28T16:16:45;5.30;99.90
39957;DHT22;48483;44.640;7.494;2023-02-28T16:19:12;5.30;99.90
39957;DHT22;48483;44.640;7.494;2023-02-28T16:21:39;5.30;99.90
39957;DHT22;48483;44.640;7.494;2023-02-28T16:24:07;5.30;99.90
39957;DHT22;48483;44.640;7.494;2023-02-28T16:26:34;5.30;99.90
39957;DHT22;48483;44.640;7.494;2023-02-28T16:29:03;5.30;99.90
39957;DHT22;48483;44.640;7.494;2023-02-28T16:31:31;5.40;99.90
39957;DHT22;48483;44.640;7.494;2023-02-28T16:33:59;5.40;99.90